x

Geneva On The Lake, Oh (gelo1) Weather Station

12:20am - Sat 20th Sep 2014 All times are CDT. -5 hours from GMT.

  • Wind
    9mph, 14mph gusts
  • Air Temp 60°f
  • Sea Pressure 1018.6mb
  • Geneva On The Lake, Oh
  • Geneva On The Lake, Oh

More Historic Weather Station data

Upgrade to MSW Pro to gain access to the past 30 days of data for over 8000 Wavebouys and Weather Stations around the globe.

Join Pro

Comparision Forecast

View Surf forecast
   
Sat 09/20 12:20am 9 14 mph 1018.6mb 60f
12:10am 7 13 mph 1018.6mb 60f
Fri 09/19 11:20pm 7 10 mph 1018.6mb 58f
10:20pm 3 6 mph 1019.3mb 56f
10:10pm 3 6 mph 1019.6mb 56f
10:00pm 2 9 mph 1019.6mb 56f
9:20pm 3 6 mph 1019.6mb 56f
8:20pm 6 7 mph - 57f
7:20pm 2 5 mph 1020.3mb 58f
7:10pm 3 5 mph 1020.7mb 59f
7:00pm 2 5 mph 1020.7mb 59f
6:20pm 8 9 mph 1021mb 62f
6:10pm 7 9 mph 1021.3mb 62f
5:20pm 18 20 mph 1021.3mb 63f
5:10pm 17 21 mph 1021.3mb 63f
5:00pm 18 20 mph 1021.7mb 63f
3:20pm 17 20 mph 1022.4mb 62f
3:10pm 16 17 mph 1022.4mb 62f
2:20pm 15 17 mph 1023mb 62f
1:20pm 14 17 mph 1023.7mb 61f
1:10pm 14 15 mph 1024mb 61f
11:20am 6 11 mph 1024.7mb 61f
11:10am 8 11 mph 1025.1mb 62f
8:20am 9 14 mph 1025.4mb 54f
8:10am 8 11 mph 1025.1mb 54f
7:20am 8 10 mph 1025.1mb 50f
7:10am 7 10 mph 1025.1mb 50f
7:00am 7 10 mph 1025.1mb 50f
6:50am 8 10 mph 1025.1mb 49f
6:20am 8 10 mph 1024.4mb 49f
6:10am 9 13 mph 1024.4mb 50f
5:20am 8 10 mph 1024mb 50f
5:10am 7 10 mph 1024mb 49f
5:00am 7 10 mph 1024mb 50f
4:50am 8 10 mph 1023.7mb 50f
3:20am 7 10 mph 1023.4mb 51f
3:10am 8 10 mph 1023.4mb 50f
3:00am 8 10 mph 1023.4mb 50f
2:50am 7 9 mph 1023.4mb 51f
2:20am 8 11 mph 1023.4mb 53f
2:10am 2 6 mph 1023.4mb 52f
Thu 09/18 11:20pm 8 10 mph 1023mb 60f
11:10pm 9 11 mph 1023mb 60f
10:20pm 14 15 mph 1022.7mb 60f
10:10pm 11 15 mph 1022.4mb 60f
10:00pm 13 16 mph 1022.4mb 60f
9:50pm 11 15 mph 1022.4mb 60f
9:20pm 13 18 mph 1022.4mb 61f
9:10pm 14 18 mph 1022.4mb 60f
9:00pm 15 18 mph 1022.4mb 61f
8:50pm 14 21 mph 1022mb 61f
8:20pm 13 17 mph 1022mb 61f
6:20am 2 9 mph 1017.9mb 53f
5:00am 3 9 mph - 52f
1:20am 2 9 mph 1016.6mb 58f
1:10am  -  6 mph 1016.6mb 54f
1:00am 2 5 mph 1016.6mb 53f
12:50am 1 3 mph 1016.6mb 55f
12:20am 2 6 mph 1016.6mb 55f
12:10am 5 9 mph 1016.6mb 57f
Wed 09/17 11:20pm 5 8 mph 1016.6mb 57f
11:10pm 3 6 mph 1016.6mb 55f
11:00pm 3 6 mph 1016.6mb 56f
9:20pm 6 8 mph 1016.3mb 58f
9:10pm 7 8 mph 1016.3mb 58f
9:00pm 6 8 mph 1016.3mb 57f
8:50pm 6 8 mph 1016.3mb 58f
8:20pm 6 7 mph 1016.3mb 59f
8:10pm 5 8 mph 1016.3mb 60f
8:00pm 5 7 mph 1016.3mb 60f
7:50pm 7 8 mph 1016.3mb 60f
6:00pm 15 18 mph 1015.9mb 64f
5:20pm 14 16 mph 1015.9mb 64f
5:10pm 13 16 mph 1015.9mb 64f
4:40pm 13 20 mph - 64f
11:20am 6 14 mph 1017.3mb 63f
11:10am 5 8 mph 1017.3mb 63f
10:20am 8 13 mph 1017.6mb 62f
8:20am 5 9 mph 1018.6mb 57f
Tue 09/16 7:20pm 5 14 mph 1019.3mb 58f